sensor_id;sensor_type;location;lat;lon;timestamp;temperature;humidity
13458;DHT22;6801;53.018;11.560;2022-12-24T00:01:37;6.50;85.10
13458;DHT22;6801;53.018;11.560;2022-12-24T00:04:04;6.50;85.10
13458;DHT22;6801;53.018;11.560;2022-12-24T00:06:31;6.50;85.20
13458;DHT22;6801;53.018;11.560;2022-12-24T00:08:58;6.50;85.10
13458;DHT22;6801;53.018;11.560;2022-12-24T00:11:25;6.50;85.10
13458;DHT22;6801;53.018;11.560;2022-12-24T00:13:53;6.50;85.10
13458;DHT22;6801;53.018;11.560;2022-12-24T00:16:20;6.50;85.10
13458;DHT22;6801;53.018;11.560;2022-12-24T00:18:47;6.50;85.10
13458;DHT22;6801;53.018;11.560;2022-12-24T00:21:14;6.50;85.10
13458;DHT22;6801;53.018;11.560;2022-12-24T00:23:41;6.50;85.10
13458;DHT22;6801;53.018;11.560;2022-12-24T00:26:08;6.50;85.10
13458;DHT22;6801;53.018;11.560;2022-12-24T00:28:35;6.50;85.10
13458;DHT22;6801;53.018;11.560;2022-12-24T00:31:08;6.50;85.10
13458;DHT22;6801;53.018;11.560;2022-12-24T00:33:35;6.40;85.10
13458;DHT22;6801;53.018;11.560;2022-12-24T00:36:04;6.40;85.00
13458;DHT22;6801;53.018;11.560;2022-12-24T00:38:31;6.50;85.10
13458;DHT22;6801;53.018;11.560;2022-12-24T00:40:58;6.40;85.00
13458;DHT22;6801;53.018;11.560;2022-12-24T00:43:26;6.40;85.00
13458;DHT22;6801;53.018;11.560;2022-12-24T00:45:54;6.40;85.10
13458;DHT22;6801;53.018;11.560;2022-12-24T00:48:22;6.40;85.10
13458;DHT22;6801;53.018;11.560;2022-12-24T00:50:50;6.50;85.10
13458;DHT22;6801;53.018;11.560;2022-12-24T00:53:17;6.40;85.10
13458;DHT22;6801;53.018;11.560;2022-12-24T00:55:44;6.40;85.20
13458;DHT22;6801;53.018;11.560;2022-12-24T00:58:11;6.40;85.10
13458;DHT22;6801;53.018;11.560;2022-12-24T01:00:38;6.40;85.10
13458;DHT22;6801;53.018;11.560;2022-12-24T01:03:05;6.40;85.10
13458;DHT22;6801;53.018;11.560;2022-12-24T01:05:33;6.40;85.10
13458;DHT22;6801;53.018;11.560;2022-12-24T01:07:59;6.40;85.20
13458;DHT22;6801;53.018;11.560;2022-12-24T01:10:26;6.40;85.10
13458;DHT22;6801;53.018;11.560;2022-12-24T01:12:53;6.40;85.10
13458;DHT22;6801;53.018;11.560;2022-12-24T01:15:20;6.30;85.00
13458;DHT22;6801;53.018;11.560;2022-12-24T01:17:47;6.40;85.10
13458;DHT22;6801;53.018;11.560;2022-12-24T01:20:15;6.40;85.10
13458;DHT22;6801;53.018;11.560;2022-12-24T01:22:44;6.30;85.10
13458;DHT22;6801;53.018;11.560;2022-12-24T01:25:11;6.30;85.10
13458;DHT22;6801;53.018;11.560;2022-12-24T01:27:38;6.30;85.20
13458;DHT22;6801;53.018;11.560;2022-12-24T01:30:07;6.30;85.20
13458;DHT22;6801;53.018;11.560;2022-12-24T01:32:34;6.30;85.20
13458;DHT22;6801;53.018;11.560;2022-12-24T01:35:01;6.30;85.20
13458;DHT22;6801;53.018;11.560;2022-12-24T01:37:28;6.30;85.20
13458;DHT22;6801;53.018;11.560;2022-12-24T01:39:56;6.30;85.10
13458;DHT22;6801;53.018;11.560;2022-12-24T01:42:38;6.30;85.10
13458;DHT22;6801;53.018;11.560;2022-12-24T01:45:42;6.30;85.10
13458;DHT22;6801;53.018;11.560;2022-12-24T01:48:16;6.30;85.10
13458;DHT22;6801;53.018;11.560;2022-12-24T01:50:45;6.30;85.10
13458;DHT22;6801;53.018;11.560;2022-12-24T01:53:13;6.30;85.10
13458;DHT22;6801;53.018;11.560;2022-12-24T01:55:42;6.30;85.20
13458;DHT22;6801;53.018;11.560;2022-12-24T01:58:10;6.20;85.20
13458;DHT22;6801;53.018;11.560;2022-12-24T02:00:38;6.20;85.30
13458;DHT22;6801;53.018;11.560;2022-12-24T02:03:05;6.30;85.30
13458;DHT22;6801;53.018;11.560;2022-12-24T02:05:45;6.30;85.30
13458;DHT22;6801;53.018;11.560;2022-12-24T02:08:13;6.20;85.30
13458;DHT22;6801;53.018;11.560;2022-12-24T02:10:41;6.20;85.30
13458;DHT22;6801;53.018;11.560;2022-12-24T02:13:08;6.20;85.30
13458;DHT22;6801;53.018;11.560;2022-12-24T02:15:55;6.20;85.30
13458;DHT22;6801;53.018;11.560;2022-12-24T02:18:30;6.20;85.30
13458;DHT22;6801;53.018;11.560;2022-12-24T02:24:35;6.20;85.30
13458;DHT22;6801;53.018;11.560;2022-12-24T02:27:16;6.20;85.30
13458;DHT22;6801;53.018;11.560;2022-12-24T02:30:06;6.20;85.30
13458;DHT22;6801;53.018;11.560;2022-12-24T02:35:34;6.20;85.20
13458;DHT22;6801;53.018;11.560;2022-12-24T02:38:07;6.30;85.20
13458;DHT22;6801;53.018;11.560;2022-12-24T02:40:39;6.20;85.20
13458;DHT22;6801;53.018;11.560;2022-12-24T02:43:10;6.20;85.20
13458;DHT22;6801;53.018;11.560;2022-12-24T02:45:41;6.20;85.30
13458;DHT22;6801;53.018;11.560;2022-12-24T02:48:12;6.20;85.40
13458;DHT22;6801;53.018;11.560;2022-12-24T02:50:54;6.20;85.30
13458;DHT22;6801;53.018;11.560;2022-12-24T02:53:21;6.20;85.20
13458;DHT22;6801;53.018;11.560;2022-12-24T02:55:58;6.20;85.20
13458;DHT22;6801;53.018;11.560;2022-12-24T02:58:33;6.20;85.20
13458;DHT22;6801;53.018;11.560;2022-12-24T03:01:12;6.10;85.20
13458;DHT22;6801;53.018;11.560;2022-12-24T03:03:50;6.10;85.30
13458;DHT22;6801;53.018;11.560;2022-12-24T03:06:31;6.10;85.30
13458;DHT22;6801;53.018;11.560;2022-12-24T03:09:03;6.10;85.30
13458;DHT22;6801;53.018;11.560;2022-12-24T03:11:33;6.10;85.40
13458;DHT22;6801;53.018;11.560;2022-12-24T03:14:02;6.10;85.40
13458;DHT22;6801;53.018;11.560;2022-12-24T03:16:31;6.10;85.40
13458;DHT22;6801;53.018;11.560;2022-12-24T03:18:59;6.10;85.50
13458;DHT22;6801;53.018;11.560;2022-12-24T03:21:29;6.10;85.50
13458;DHT22;6801;53.018;11.560;2022-12-24T03:23:57;6.10;85.50
13458;DHT22;6801;53.018;11.560;2022-12-24T03:26:26;6.10;85.50
13458;DHT22;6801;53.018;11.560;2022-12-24T03:28:54;6.10;85.40
13458;DHT22;6801;53.018;11.560;2022-12-24T03:31:21;6.10;85.40
13458;DHT22;6801;53.018;11.560;2022-12-24T03:33:50;6.10;85.40
13458;DHT22;6801;53.018;11.560;2022-12-24T03:36:17;6.10;85.40
13458;DHT22;6801;53.018;11.560;2022-12-24T03:38:43;6.10;85.40
13458;DHT22;6801;53.018;11.560;2022-12-24T03:41:10;6.10;85.40
13458;DHT22;6801;53.018;11.560;2022-12-24T03:43:37;6.10;85.40
13458;DHT22;6801;53.018;11.560;2022-12-24T03:46:05;6.10;85.40
13458;DHT22;6801;53.018;11.560;2022-12-24T03:48:33;6.10;85.50
13458;DHT22;6801;53.018;11.560;2022-12-24T03:51:02;6.10;85.50
13458;DHT22;6801;53.018;11.560;2022-12-24T03:53:29;6.10;85.40
13458;DHT22;6801;53.018;11.560;2022-12-24T03:55:57;6.10;85.40
13458;DHT22;6801;53.018;11.560;2022-12-24T03:58:24;6.10;85.40
13458;DHT22;6801;53.018;11.560;2022-12-24T04:00:51;6.10;85.40
13458;DHT22;6801;53.018;11.560;2022-12-24T04:03:18;6.10;85.50
13458;DHT22;6801;53.018;11.560;2022-12-24T04:05:46;6.10;85.50
13458;DHT22;6801;53.018;11.560;2022-12-24T04:08:14;6.10;85.40
13458;DHT22;6801;53.018;11.560;2022-12-24T04:10:41;6.10;85.40
13458;DHT22;6801;53.018;11.560;2022-12-24T04:13:08;6.10;85.40
13458;DHT22;6801;53.018;11.560;2022-12-24T04:15:35;6.00;85.50
13458;DHT22;6801;53.018;11.560;2022-12-24T04:18:02;6.00;85.40
13458;DHT22;6801;53.018;11.560;2022-12-24T04:20:29;6.10;85.40
13458;DHT22;6801;53.018;11.560;2022-12-24T04:22:56;6.10;85.50
13458;DHT22;6801;53.018;11.560;2022-12-24T04:25:24;6.00;85.50
13458;DHT22;6801;53.018;11.560;2022-12-24T04:27:51;6.00;85.40
13458;DHT22;6801;53.018;11.560;2022-12-24T04:30:18;6.10;85.50
13458;DHT22;6801;53.018;11.560;2022-12-24T04:32:45;6.00;85.50
13458;DHT22;6801;53.018;11.560;2022-12-24T04:35:12;6.00;85.50
13458;DHT22;6801;53.018;11.560;2022-12-24T04:37:39;6.00;85.50
13458;DHT22;6801;53.018;11.560;2022-12-24T04:40:07;6.10;85.40
13458;DHT22;6801;53.018;11.560;2022-12-24T04:42:35;6.00;85.50
13458;DHT22;6801;53.018;11.560;2022-12-24T04:45:03;6.00;85.50
13458;DHT22;6801;53.018;11.560;2022-12-24T04:47:30;6.00;85.50
13458;DHT22;6801;53.018;11.560;2022-12-24T04:49:57;6.00;85.50
13458;DHT22;6801;53.018;11.560;2022-12-24T04:52:26;6.10;85.40
13458;DHT22;6801;53.018;11.560;2022-12-24T04:54:53;6.00;85.40
13458;DHT22;6801;53.018;11.560;2022-12-24T04:57:20;6.10;85.40
13458;DHT22;6801;53.018;11.560;2022-12-24T04:59:48;6.10;85.40
13458;DHT22;6801;53.018;11.560;2022-12-24T05:02:15;6.10;85.40
13458;DHT22;6801;53.018;11.560;2022-12-24T05:04:42;6.10;85.50
13458;DHT22;6801;53.018;11.560;2022-12-24T05:07:09;6.10;85.50
13458;DHT22;6801;53.018;11.560;2022-12-24T05:09:36;6.10;85.50
13458;DHT22;6801;53.018;11.560;2022-12-24T05:12:03;6.00;85.50
13458;DHT22;6801;53.018;11.560;2022-12-24T05:14:30;6.00;85.50
13458;DHT22;6801;53.018;11.560;2022-12-24T05:16:58;6.00;85.50
13458;DHT22;6801;53.018;11.560;2022-12-24T05:19:25;6.10;85.50
13458;DHT22;6801;53.018;11.560;2022-12-24T05:21:52;6.00;85.50
13458;DHT22;6801;53.018;11.560;2022-12-24T05:24:32;6.00;85.50
13458;DHT22;6801;53.018;11.560;2022-12-24T05:27:17;6.10;85.50
13458;DHT22;6801;53.018;11.560;2022-12-24T05:29:44;6.00;85.40
13458;DHT22;6801;53.018;11.560;2022-12-24T05:32:12;6.10;85.40
13458;DHT22;6801;53.018;11.560;2022-12-24T05:34:39;6.00;85.40
13458;DHT22;6801;53.018;11.560;2022-12-24T05:37:06;6.00;85.50
13458;DHT22;6801;53.018;11.560;2022-12-24T05:39:33;6.00;85.60
13458;DHT22;6801;53.018;11.560;2022-12-24T05:42:00;6.00;85.50
13458;DHT22;6801;53.018;11.560;2022-12-24T05:44:27;6.10;85.50
13458;DHT22;6801;53.018;11.560;2022-12-24T05:46:54;6.00;85.50
13458;DHT22;6801;53.018;11.560;2022-12-24T05:49:22;6.00;85.50
13458;DHT22;6801;53.018;11.560;2022-12-24T05:51:49;6.00;85.50
13458;DHT22;6801;53.018;11.560;2022-12-24T05:54:16;6.00;85.50
13458;DHT22;6801;53.018;11.560;2022-12-24T05:56:42;6.00;85.50
13458;DHT22;6801;53.018;11.560;2022-12-24T05:59:10;6.00;85.50
13458;DHT22;6801;53.018;11.560;2022-12-24T06:01:38;6.00;85.50
13458;DHT22;6801;53.018;11.560;2022-12-24T06:04:05;6.00;85.50
13458;DHT22;6801;53.018;11.560;2022-12-24T06:06:33;6.00;85.50
13458;DHT22;6801;53.018;11.560;2022-12-24T06:09:00;6.10;85.50
13458;DHT22;6801;53.018;11.560;2022-12-24T06:11:27;6.10;85.50
13458;DHT22;6801;53.018;11.560;2022-12-24T06:13:55;6.00;85.50
13458;DHT22;6801;53.018;11.560;2022-12-24T06:16:24;6.10;85.50
13458;DHT22;6801;53.018;11.560;2022-12-24T06:18:51;6.10;85.50
13458;DHT22;6801;53.018;11.560;2022-12-24T06:21:19;6.10;85.50
13458;DHT22;6801;53.018;11.560;2022-12-24T06:23:47;6.10;85.50
13458;DHT22;6801;53.018;11.560;2022-12-24T06:26:16;6.10;85.50
13458;DHT22;6801;53.018;11.560;2022-12-24T06:28:44;6.10;85.50
13458;DHT22;6801;53.018;11.560;2022-12-24T06:31:13;6.10;85.50
13458;DHT22;6801;53.018;11.560;2022-12-24T06:33:40;6.10;85.50
13458;DHT22;6801;53.018;11.560;2022-12-24T06:36:09;6.10;85.50
13458;DHT22;6801;53.018;11.560;2022-12-24T06:38:39;6.10;85.60
13458;DHT22;6801;53.018;11.560;2022-12-24T06:41:07;6.10;85.50
13458;DHT22;6801;53.018;11.560;2022-12-24T06:43:34;6.10;85.50
13458;DHT22;6801;53.018;11.560;2022-12-24T06:46:02;6.10;85.50
13458;DHT22;6801;53.018;11.560;2022-12-24T06:48:29;6.10;85.40
13458;DHT22;6801;53.018;11.560;2022-12-24T06:50:56;6.10;85.40
13458;DHT22;6801;53.018;11.560;2022-12-24T06:53:23;6.10;85.40
13458;DHT22;6801;53.018;11.560;2022-12-24T06:55:50;6.10;85.30
13458;DHT22;6801;53.018;11.560;2022-12-24T06:58:18;6.10;85.40
13458;DHT22;6801;53.018;11.560;2022-12-24T07:00:46;6.10;85.50
13458;DHT22;6801;53.018;11.560;2022-12-24T07:03:13;6.10;85.40
13458;DHT22;6801;53.018;11.560;2022-12-24T07:05:40;6.10;85.40
13458;DHT22;6801;53.018;11.560;2022-12-24T07:08:08;6.10;85.40
13458;DHT22;6801;53.018;11.560;2022-12-24T07:10:35;6.10;85.40
13458;DHT22;6801;53.018;11.560;2022-12-24T07:13:01;6.10;85.40
13458;DHT22;6801;53.018;11.560;2022-12-24T07:15:30;6.10;85.50
13458;DHT22;6801;53.018;11.560;2022-12-24T07:17:57;6.10;85.40
13458;DHT22;6801;53.018;11.560;2022-12-24T07:20:23;6.10;85.40
13458;DHT22;6801;53.018;11.560;2022-12-24T07:22:50;6.10;85.40
13458;DHT22;6801;53.018;11.560;2022-12-24T07:25:17;6.10;85.50
13458;DHT22;6801;53.018;11.560;2022-12-24T07:27:44;6.10;85.40
13458;DHT22;6801;53.018;11.560;2022-12-24T07:30:11;6.10;85.50
13458;DHT22;6801;53.018;11.560;2022-12-24T07:32:40;6.10;85.50
13458;DHT22;6801;53.018;11.560;2022-12-24T07:35:07;6.10;85.50
13458;DHT22;6801;53.018;11.560;2022-12-24T07:37:34;6.10;85.50
13458;DHT22;6801;53.018;11.560;2022-12-24T07:40:02;6.10;85.50
13458;DHT22;6801;53.018;11.560;2022-12-24T07:42:30;6.10;85.60
13458;DHT22;6801;53.018;11.560;2022-12-24T07:44:57;6.10;85.60
13458;DHT22;6801;53.018;11.560;2022-12-24T07:47:24;6.10;85.50
13458;DHT22;6801;53.018;11.560;2022-12-24T07:49:53;6.20;85.60
13458;DHT22;6801;53.018;11.560;2022-12-24T07:52:19;6.20;85.40
13458;DHT22;6801;53.018;11.560;2022-12-24T07:54:46;6.20;85.50
13458;DHT22;6801;53.018;11.560;2022-12-24T07:57:13;6.10;85.50
13458;DHT22;6801;53.018;11.560;2022-12-24T07:59:40;6.10;85.60
13458;DHT22;6801;53.018;11.560;2022-12-24T08:02:09;6.10;85.60
13458;DHT22;6801;53.018;11.560;2022-12-24T08:04:36;6.10;85.60
13458;DHT22;6801;53.018;11.560;2022-12-24T08:07:05;6.10;85.60
13458;DHT22;6801;53.018;11.560;2022-12-24T08:09:33;6.10;85.60
13458;DHT22;6801;53.018;11.560;2022-12-24T08:12:00;6.10;85.60
13458;DHT22;6801;53.018;11.560;2022-12-24T08:14:28;6.10;85.60
13458;DHT22;6801;53.018;11.560;2022-12-24T08:16:55;6.20;85.50
13458;DHT22;6801;53.018;11.560;2022-12-24T08:19:22;6.10;85.50
13458;DHT22;6801;53.018;11.560;2022-12-24T08:21:49;6.20;85.50
13458;DHT22;6801;53.018;11.560;2022-12-24T08:24:18;6.20;85.50
13458;DHT22;6801;53.018;11.560;2022-12-24T08:26:45;6.20;85.50
13458;DHT22;6801;53.018;11.560;2022-12-24T08:29:12;6.10;85.50
13458;DHT22;6801;53.018;11.560;2022-12-24T08:31:38;6.10;85.50
13458;DHT22;6801;53.018;11.560;2022-12-24T08:34:06;6.10;85.50
13458;DHT22;6801;53.018;11.560;2022-12-24T08:36:34;6.20;85.40
13458;DHT22;6801;53.018;11.560;2022-12-24T08:39:01;6.20;85.50
13458;DHT22;6801;53.018;11.560;2022-12-24T08:41:29;6.20;85.40
13458;DHT22;6801;53.018;11.560;2022-12-24T08:43:56;6.20;85.40
13458;DHT22;6801;53.018;11.560;2022-12-24T08:46:24;6.20;85.40
13458;DHT22;6801;53.018;11.560;2022-12-24T08:48:50;6.20;85.40
13458;DHT22;6801;53.018;11.560;2022-12-24T08:51:18;6.20;85.50
13458;DHT22;6801;53.018;11.560;2022-12-24T08:53:45;6.20;85.40
13458;DHT22;6801;53.018;11.560;2022-12-24T08:56:12;6.20;85.40
13458;DHT22;6801;53.018;11.560;2022-12-24T08:58:41;6.20;85.50
13458;DHT22;6801;53.018;11.560;2022-12-24T09:01:12;6.20;85.60
13458;DHT22;6801;53.018;11.560;2022-12-24T09:03:39;6.20;85.60
13458;DHT22;6801;53.018;11.560;2022-12-24T09:06:07;6.20;85.50
13458;DHT22;6801;53.018;11.560;2022-12-24T09:08:34;6.20;85.50
13458;DHT22;6801;53.018;11.560;2022-12-24T09:11:03;6.20;85.50
13458;DHT22;6801;53.018;11.560;2022-12-24T09:13:30;6.30;85.40
13458;DHT22;6801;53.018;11.560;2022-12-24T09:15:59;6.30;85.50
13458;DHT22;6801;53.018;11.560;2022-12-24T09:18:26;6.30;85.40
13458;DHT22;6801;53.018;11.560;2022-12-24T09:20:58;6.30;85.40
13458;DHT22;6801;53.018;11.560;2022-12-24T09:23:26;6.30;85.50
13458;DHT22;6801;53.018;11.560;2022-12-24T09:25:53;6.30;85.60
13458;DHT22;6801;53.018;11.560;2022-12-24T09:28:20;6.30;85.50
13458;DHT22;6801;53.018;11.560;2022-12-24T09:30:55;6.30;85.50
13458;DHT22;6801;53.018;11.560;2022-12-24T09:33:23;6.30;85.40
13458;DHT22;6801;53.018;11.560;2022-12-24T09:35:50;6.30;85.50
13458;DHT22;6801;53.018;11.560;2022-12-24T09:38:18;6.40;85.50
13458;DHT22;6801;53.018;11.560;2022-12-24T09:40:45;6.30;85.50
13458;DHT22;6801;53.018;11.560;2022-12-24T09:43:14;6.30;85.50
13458;DHT22;6801;53.018;11.560;2022-12-24T09:45:45;6.40;85.50
13458;DHT22;6801;53.018;11.560;2022-12-24T09:48:16;6.40;85.60
13458;DHT22;6801;53.018;11.560;2022-12-24T09:50:49;6.40;85.60
13458;DHT22;6801;53.018;11.560;2022-12-24T09:53:25;6.30;85.60
13458;DHT22;6801;53.018;11.560;2022-12-24T09:55:56;6.40;85.60
13458;DHT22;6801;53.018;11.560;2022-12-24T09:58:26;6.40;85.60
13458;DHT22;6801;53.018;11.560;2022-12-24T10:00:55;6.40;85.60
13458;DHT22;6801;53.018;11.560;2022-12-24T10:03:22;6.40;85.60
13458;DHT22;6801;53.018;11.560;2022-12-24T10:05:59;6.40;85.50
13458;DHT22;6801;53.018;11.560;2022-12-24T10:08:34;6.50;85.50
13458;DHT22;6801;53.018;11.560;2022-12-24T10:11:10;6.50;85.50
13458;DHT22;6801;53.018;11.560;2022-12-24T10:13:53;6.40;85.50
13458;DHT22;6801;53.018;11.560;2022-12-24T10:16:34;6.50;85.50
13458;DHT22;6801;53.018;11.560;2022-12-24T10:19:09;6.50;85.50
13458;DHT22;6801;53.018;11.560;2022-12-24T10:21:48;6.50;85.50
13458;DHT22;6801;53.018;11.560;2022-12-24T10:24:22;6.50;85.50
13458;DHT22;6801;53.018;11.560;2022-12-24T10:26:53;6.50;85.40
13458;DHT22;6801;53.018;11.560;2022-12-24T10:29:26;6.50;85.50
13458;DHT22;6801;53.018;11.560;2022-12-24T10:31:57;6.50;85.50
13458;DHT22;6801;53.018;11.560;2022-12-24T10:34:29;6.60;85.50
13458;DHT22;6801;53.018;11.560;2022-12-24T10:36:59;6.60;85.40
13458;DHT22;6801;53.018;11.560;2022-12-24T10:39:29;6.60;85.50
13458;DHT22;6801;53.018;11.560;2022-12-24T10:41:58;6.60;85.50
13458;DHT22;6801;53.018;11.560;2022-12-24T10:44:27;6.60;85.40
13458;DHT22;6801;53.018;11.560;2022-12-24T10:46:56;6.60;85.40
13458;DHT22;6801;53.018;11.560;2022-12-24T10:49:30;6.60;85.40
13458;DHT22;6801;53.018;11.560;2022-12-24T10:52:03;6.60;85.40
13458;DHT22;6801;53.018;11.560;2022-12-24T10:54:31;6.60;85.40
13458;DHT22;6801;53.018;11.560;2022-12-24T10:57:04;6.70;85.30
13458;DHT22;6801;53.018;11.560;2022-12-24T10:59:42;6.60;85.30
13458;DHT22;6801;53.018;11.560;2022-12-24T11:02:26;6.70;85.30
13458;DHT22;6801;53.018;11.560;2022-12-24T11:04:53;6.70;85.20
13458;DHT22;6801;53.018;11.560;2022-12-24T11:07:22;6.70;85.20
13458;DHT22;6801;53.018;11.560;2022-12-24T11:09:55;6.70;85.10
13458;DHT22;6801;53.018;11.560;2022-12-24T11:12:24;6.70;85.10
13458;DHT22;6801;53.018;11.560;2022-12-24T11:14:59;6.80;85.10
13458;DHT22;6801;53.018;11.560;2022-12-24T11:17:27;6.80;85.00
13458;DHT22;6801;53.018;11.560;2022-12-24T11:19:54;6.80;85.00
13458;DHT22;6801;53.018;11.560;2022-12-24T11:22:24;6.80;85.00
13458;DHT22;6801;53.018;11.560;2022-12-24T11:25:01;6.80;85.00
13458;DHT22;6801;53.018;11.560;2022-12-24T11:27:38;6.90;85.00
13458;DHT22;6801;53.018;11.560;2022-12-24T11:30:30;6.90;84.90
13458;DHT22;6801;53.018;11.560;2022-12-24T11:33:18;7.00;84.90
13458;DHT22;6801;53.018;11.560;2022-12-24T11:35:49;6.90;84.80
13458;DHT22;6801;53.018;11.560;2022-12-24T11:38:21;7.00;84.70
13458;DHT22;6801;53.018;11.560;2022-12-24T11:40:49;7.00;84.70
13458;DHT22;6801;53.018;11.560;2022-12-24T11:43:22;7.00;84.70
13458;DHT22;6801;53.018;11.560;2022-12-24T11:45:51;7.00;84.70
13458;DHT22;6801;53.018;11.560;2022-12-24T11:48:26;7.00;84.70
13458;DHT22;6801;53.018;11.560;2022-12-24T11:50:59;7.00;84.70
13458;DHT22;6801;53.018;11.560;2022-12-24T11:53:33;7.10;84.70
13458;DHT22;6801;53.018;11.560;2022-12-24T11:56:05;7.10;84.70
13458;DHT22;6801;53.018;11.560;2022-12-24T11:58:38;7.10;84.70
13458;DHT22;6801;53.018;11.560;2022-12-24T12:01:13;7.20;84.70
13458;DHT22;6801;53.018;11.560;2022-12-24T12:03:45;7.20;84.70
13458;DHT22;6801;53.018;11.560;2022-12-24T12:06:23;7.20;84.60
13458;DHT22;6801;53.018;11.560;2022-12-24T12:08:55;7.20;84.60
13458;DHT22;6801;53.018;11.560;2022-12-24T12:11:25;7.20;84.60
13458;DHT22;6801;53.018;11.560;2022-12-24T12:13:55;7.20;84.60
13458;DHT22;6801;53.018;11.560;2022-12-24T12:16:27;7.30;84.60
13458;DHT22;6801;53.018;11.560;2022-12-24T12:19:16;7.30;84.60
13458;DHT22;6801;53.018;11.560;2022-12-24T12:21:46;7.30;84.50
13458;DHT22;6801;53.018;11.560;2022-12-24T12:24:21;7.40;84.50
13458;DHT22;6801;53.018;11.560;2022-12-24T12:26:56;7.40;84.50
13458;DHT22;6801;53.018;11.560;2022-12-24T12:29:29;7.40;84.60
13458;DHT22;6801;53.018;11.560;2022-12-24T12:32:03;7.40;84.50
13458;DHT22;6801;53.018;11.560;2022-12-24T12:34:34;7.40;84.60
13458;DHT22;6801;53.018;11.560;2022-12-24T12:37:04;7.40;84.60
13458;DHT22;6801;53.018;11.560;2022-12-24T12:39:35;7.50;84.60
13458;DHT22;6801;53.018;11.560;2022-12-24T12:42:08;7.50;84.40
13458;DHT22;6801;53.018;11.560;2022-12-24T12:44:53;7.50;84.20
13458;DHT22;6801;53.018;11.560;2022-12-24T12:50:17;7.50;84.40
13458;DHT22;6801;53.018;11.560;2022-12-24T12:53:01;7.60;84.50
13458;DHT22;6801;53.018;11.560;2022-12-24T12:55:40;7.60;84.60
13458;DHT22;6801;53.018;11.560;2022-12-24T12:58:15;7.70;84.60
13458;DHT22;6801;53.018;11.560;2022-12-24T13:00:46;7.70;84.60
13458;DHT22;6801;53.018;11.560;2022-12-24T13:06:37;7.80;84.70
13458;DHT22;6801;53.018;11.560;2022-12-24T13:09:43;7.80;84.60
13458;DHT22;6801;53.018;11.560;2022-12-24T13:12:25;7.80;84.70
13458;DHT22;6801;53.018;11.560;2022-12-24T13:18:15;7.90;84.60
13458;DHT22;6801;53.018;11.560;2022-12-24T13:20:47;7.90;84.60
13458;DHT22;6801;53.018;11.560;2022-12-24T13:23:17;7.90;84.70
13458;DHT22;6801;53.018;11.560;2022-12-24T13:25:47;8.00;84.80
13458;DHT22;6801;53.018;11.560;2022-12-24T13:28:32;8.00;84.80
13458;DHT22;6801;53.018;11.560;2022-12-24T13:31:22;8.00;84.90
13458;DHT22;6801;53.018;11.560;2022-12-24T13:33:51;8.00;84.80
13458;DHT22;6801;53.018;11.560;2022-12-24T13:36:19;8.00;84.90
13458;DHT22;6801;53.018;11.560;2022-12-24T13:38:48;8.00;84.90
13458;DHT22;6801;53.018;11.560;2022-12-24T13:41:36;8.00;84.90
13458;DHT22;6801;53.018;11.560;2022-12-24T13:44:21;8.10;84.90
13458;DHT22;6801;53.018;11.560;2022-12-24T13:46:54;8.10;84.90
13458;DHT22;6801;53.018;11.560;2022-12-24T13:49:29;8.10;85.00
13458;DHT22;6801;53.018;11.560;2022-12-24T13:52:25;8.10;85.00
13458;DHT22;6801;53.018;11.560;2022-12-24T13:55:13;8.10;85.10
13458;DHT22;6801;53.018;11.560;2022-12-24T13:57:52;8.10;85.00
13458;DHT22;6801;53.018;11.560;2022-12-24T14:00:38;8.20;85.00
13458;DHT22;6801;53.018;11.560;2022-12-24T14:03:20;8.20;85.00
13458;DHT22;6801;53.018;11.560;2022-12-24T14:05:51;8.20;85.00
13458;DHT22;6801;53.018;11.560;2022-12-24T14:08:32;8.30;84.90
13458;DHT22;6801;53.018;11.560;2022-12-24T14:11:05;8.20;85.00
13458;DHT22;6801;53.018;11.560;2022-12-24T14:14:10;8.30;85.00
13458;DHT22;6801;53.018;11.560;2022-12-24T14:16:51;8.30;85.10
13458;DHT22;6801;53.018;11.560;2022-12-24T14:19:21;8.30;84.90
13458;DHT22;6801;53.018;11.560;2022-12-24T14:21:54;8.30;84.90
13458;DHT22;6801;53.018;11.560;2022-12-24T14:24:24;8.20;85.00
13458;DHT22;6801;53.018;11.560;2022-12-24T14:26:55;8.30;85.20
13458;DHT22;6801;53.018;11.560;2022-12-24T14:29:26;8.30;85.20
13458;DHT22;6801;53.018;11.560;2022-12-24T14:31:57;8.30;85.20
13458;DHT22;6801;53.018;11.560;2022-12-24T14:34:26;8.30;85.20
13458;DHT22;6801;53.018;11.560;2022-12-24T14:36:54;8.30;85.30
13458;DHT22;6801;53.018;11.560;2022-12-24T14:39:25;8.30;85.20
13458;DHT22;6801;53.018;11.560;2022-12-24T14:42:01;8.30;85.20
13458;DHT22;6801;53.018;11.560;2022-12-24T14:44:38;8.30;85.20
13458;DHT22;6801;53.018;11.560;2022-12-24T14:47:18;8.30;85.20
13458;DHT22;6801;53.018;11.560;2022-12-24T14:49:59;8.30;85.10
13458;DHT22;6801;53.018;11.560;2022-12-24T14:52:34;8.30;85.10
13458;DHT22;6801;53.018;11.560;2022-12-24T14:55:28;8.30;85.20
13458;DHT22;6801;53.018;11.560;2022-12-24T14:58:22;8.30;85.20
13458;DHT22;6801;53.018;11.560;2022-12-24T15:00:50;8.30;85.20
13458;DHT22;6801;53.018;11.560;2022-12-24T15:03:21;8.30;85.20
13458;DHT22;6801;53.018;11.560;2022-12-24T15:05:49;8.30;85.30
13458;DHT22;6801;53.018;11.560;2022-12-24T15:08:20;8.20;85.30
13458;DHT22;6801;53.018;11.560;2022-12-24T15:10:51;8.20;85.10
13458;DHT22;6801;53.018;11.560;2022-12-24T15:13:22;8.30;85.20
13458;DHT22;6801;53.018;11.560;2022-12-24T15:15:53;8.20;85.30
13458;DHT22;6801;53.018;11.560;2022-12-24T15:18:25;8.30;85.30
13458;DHT22;6801;53.018;11.560;2022-12-24T15:20:54;8.20;85.20
13458;DHT22;6801;53.018;11.560;2022-12-24T15:23:27;8.20;85.20
13458;DHT22;6801;53.018;11.560;2022-12-24T15:26:13;8.20;85.20
13458;DHT22;6801;53.018;11.560;2022-12-24T15:28:41;8.20;85.20
13458;DHT22;6801;53.018;11.560;2022-12-24T15:31:11;8.20;85.20
13458;DHT22;6801;53.018;11.560;2022-12-24T15:33:39;8.10;85.20
13458;DHT22;6801;53.018;11.560;2022-12-24T15:36:07;8.10;85.20
13458;DHT22;6801;53.018;11.560;2022-12-24T15:38:36;8.10;85.20
13458;DHT22;6801;53.018;11.560;2022-12-24T15:41:13;8.10;85.20
13458;DHT22;6801;53.018;11.560;2022-12-24T15:43:42;8.10;85.20
13458;DHT22;6801;53.018;11.560;2022-12-24T15:46:17;8.10;85.20
13458;DHT22;6801;53.018;11.560;2022-12-24T15:48:46;8.10;85.20
13458;DHT22;6801;53.018;11.560;2022-12-24T15:51:20;8.10;85.20
13458;DHT22;6801;53.018;11.560;2022-12-24T15:53:49;8.10;85.20
13458;DHT22;6801;53.018;11.560;2022-12-24T15:56:29;8.10;85.20
13458;DHT22;6801;53.018;11.560;2022-12-24T15:59:11;8.10;85.20
13458;DHT22;6801;53.018;11.560;2022-12-24T16:01:38;8.10;85.20
13458;DHT22;6801;53.018;11.560;2022-12-24T16:04:12;8.00;85.20
13458;DHT22;6801;53.018;11.560;2022-12-24T16:06:51;8.00;85.20
13458;DHT22;6801;53.018;11.560;2022-12-24T16:09:39;8.00;85.20
13458;DHT22;6801;53.018;11.560;2022-12-24T16:12:16;8.00;85.30
13458;DHT22;6801;53.018;11.560;2022-12-24T16:14:48;8.00;85.30
13458;DHT22;6801;53.018;11.560;2022-12-24T16:17:19;8.00;85.40
13458;DHT22;6801;53.018;11.560;2022-12-24T16:19:49;8.00;85.40
13458;DHT22;6801;53.018;11.560;2022-12-24T16:22:18;8.00;85.40
13458;DHT22;6801;53.018;11.560;2022-12-24T16:24:58;8.00;85.40